Terminal Aerodrome Forecast
Issued by NWS Sterling, VA

Current Version | Previous Version | Graphics & Text | Print | Product List | Glossary On
Versions: 1 2 3 4 5 6 7 8 9 10 11 12 13 14 15 16 17 18 19 20 21 22 23 24 25 26 27
000
FTUS41 KLWX 051135
TAFDCA
TAF
KDCA 051135Z 0512/0612 20003KT P6SM FEW150 SCT250
     FM051300 VRB05KT P6SM BKN100
     FM052100 22006KT 6SM -SHRA VCTS BKN050CB
     FM060000 VRB03KT P6SM VCSH BKN070=

USA.gov is the U.S. government's official web portal to all federal, state and local government web resources and services.